createdAt,value
2022-09-14T00:03:42.359Z,15.52
2022-09-14T00:13:50.633Z,15.41
2022-09-14T00:23:57.968Z,15.34
2022-09-14T00:34:06.859Z,15.27
2022-09-14T00:44:44.668Z,15.26
2022-09-14T00:54:56.218Z,15.24
2022-09-14T01:05:04.000Z,15.11
2022-09-14T01:15:21.867Z,15.06
2022-09-14T01:25:43.174Z,15.01
2022-09-14T01:35:53.376Z,14.97
2022-09-14T01:46:06.275Z,14.90
2022-09-14T01:56:15.569Z,14.69
2022-09-14T02:06:20.578Z,14.56
2022-09-14T02:16:28.380Z,14.49
2022-09-14T02:26:36.711Z,14.44
2022-09-14T02:36:45.093Z,14.44
2022-09-14T02:47:00.043Z,14.43
2022-09-14T02:57:08.443Z,14.42
2022-09-14T03:07:15.704Z,14.40
2022-09-14T03:17:22.750Z,14.33
2022-09-14T03:27:30.045Z,14.28
2022-09-14T03:37:40.295Z,14.30
2022-09-14T03:47:47.158Z,14.31
2022-09-14T03:57:55.016Z,14.23
2022-09-14T04:08:02.141Z,14.19
2022-09-14T04:18:09.625Z,14.20
2022-09-14T04:28:20.445Z,14.26
2022-09-14T04:38:28.470Z,14.26
2022-09-14T04:48:36.279Z,14.31
2022-09-14T04:58:50.686Z,14.29
2022-09-14T05:09:00.600Z,14.32
2022-09-14T05:19:12.396Z,14.41
2022-09-14T05:29:20.592Z,14.55
2022-09-14T05:39:26.696Z,14.75
2022-09-14T05:49:33.671Z,15.05
2022-09-14T05:59:40.928Z,15.39
2022-09-14T06:09:48.089Z,15.56
2022-09-14T06:19:55.407Z,16.23
2022-09-14T06:30:02.509Z,16.80
2022-09-14T06:40:11.083Z,17.04
2022-09-14T06:50:18.453Z,16.95
2022-09-14T07:00:25.717Z,16.95
2022-09-14T07:10:31.781Z,17.14
2022-09-14T07:20:39.002Z,17.34
2022-09-14T07:30:46.228Z,17.56
2022-09-14T07:40:54.221Z,17.81
2022-09-14T07:51:03.687Z,18.32
2022-09-14T08:01:12.606Z,19.13
2022-09-14T08:11:22.522Z,19.27
2022-09-14T08:21:32.171Z,19.31
2022-09-14T08:31:39.388Z,19.68
2022-09-14T08:41:47.428Z,20.01
2022-09-14T08:51:55.064Z,20.13
2022-09-14T09:02:03.276Z,20.29
2022-09-14T09:12:17.836Z,20.48
2022-09-14T09:22:30.107Z,20.54
2022-09-14T09:32:38.395Z,20.53
2022-09-14T09:43:06.373Z,20.56
2022-09-14T09:53:16.632Z,20.68
2022-09-14T10:03:23.222Z,20.78
2022-09-14T10:13:30.221Z,20.82
2022-09-14T10:23:39.035Z,21.01
2022-09-14T10:33:46.882Z,21.23
2022-09-14T10:43:56.737Z,21.21
2022-09-14T10:54:14.040Z,20.87
2022-09-14T11:04:23.176Z,20.57
2022-09-14T11:14:36.589Z,20.33
2022-09-14T11:24:41.598Z,20.18
2022-09-14T11:34:54.951Z,20.37
2022-09-14T11:45:07.617Z,20.55
2022-09-14T11:55:19.785Z,20.63
2022-09-14T12:05:43.684Z,20.75
2022-09-14T12:16:02.024Z,20.67
2022-09-14T12:26:16.279Z,20.62
2022-09-14T12:36:56.957Z,20.46
2022-09-14T12:47:29.569Z,20.32
2022-09-14T12:57:36.378Z,20.10
2022-09-14T13:07:44.637Z,19.89
2022-09-14T13:18:04.226Z,19.75
2022-09-14T13:28:18.870Z,19.59
2022-09-14T13:38:28.579Z,19.60
2022-09-14T13:48:37.522Z,19.57
2022-09-14T13:58:45.275Z,19.55
2022-09-14T14:09:07.134Z,19.52
2022-09-14T14:19:29.900Z,19.43
2022-09-14T14:29:37.103Z,19.23
2022-09-14T14:39:49.409Z,19.10
2022-09-14T14:49:56.806Z,18.95
2022-09-14T15:00:02.692Z,18.92
2022-09-14T15:10:14.613Z,18.96
2022-09-14T15:20:23.228Z,19.00
2022-09-14T15:30:30.336Z,18.91
2022-09-14T15:40:37.678Z,18.82
2022-09-14T15:50:43.801Z,18.90
2022-09-14T16:00:51.046Z,18.92
2022-09-14T16:11:01.664Z,18.75
2022-09-14T16:21:10.111Z,18.51
2022-09-14T16:31:20.245Z,18.47
2022-09-14T16:41:27.949Z,18.48
2022-09-14T16:51:35.851Z,18.36
2022-09-14T17:01:46.576Z,18.13
2022-09-14T17:11:57.678Z,17.93
2022-09-14T17:22:04.105Z,17.79
2022-09-14T17:32:14.815Z,17.72
2022-09-14T17:42:22.431Z,17.73
2022-09-14T17:52:25.856Z,17.68
2022-09-14T18:02:33.014Z,17.63
2022-09-14T18:12:40.076Z,17.58
2022-09-14T18:22:47.282Z,17.55
2022-09-14T18:32:54.527Z,17.51
2022-09-14T18:43:01.790Z,17.43
2022-09-14T18:53:09.496Z,17.37
2022-09-14T19:03:17.026Z,17.30
2022-09-14T19:13:24.311Z,17.13
2022-09-14T19:23:31.737Z,17.00
2022-09-14T19:33:45.044Z,16.93
2022-09-14T19:43:53.590Z,16.93
2022-09-14T19:54:02.132Z,16.97
2022-09-14T20:04:10.603Z,17.11
2022-09-14T20:14:17.910Z,17.09
2022-09-14T20:24:28.057Z,16.99
2022-09-14T20:34:34.792Z,17.05
2022-09-14T20:44:42.449Z,17.09
2022-09-14T20:54:49.590Z,17.13
2022-09-14T21:04:55.980Z,17.06
2022-09-14T21:15:03.172Z,16.95
2022-09-14T21:25:11.821Z,16.96
2022-09-14T21:35:18.093Z,16.86
2022-09-14T21:45:23.977Z,16.72
2022-09-14T21:55:31.410Z,16.71
2022-09-14T22:05:38.910Z,16.68
2022-09-14T22:15:47.266Z,16.66
2022-09-14T22:25:55.093Z,16.64
2022-09-14T22:36:04.138Z,16.63
2022-09-14T22:46:11.841Z,16.54
2022-09-14T22:56:24.788Z,16.52
2022-09-14T23:06:34.024Z,16.42
2022-09-14T23:16:41.505Z,16.33
2022-09-14T23:26:49.308Z,16.24
2022-09-14T23:36:57.368Z,16.15
2022-09-14T23:47:04.921Z,15.96
2022-09-14T23:57:11.934Z,15.81
